地図

経路データ

SID SEASON NUMBER BASIN SUBBASIN NAME ISO_TIME NATURE LAT LON WMO_WIND WMO_PRES WMO_AGENCY TRACK_TYPE DIST2LAND LANDFALL IFLAG USA_AGENCY USA_ATCF_ID USA_LAT USA_LON USA_RECORD USA_STATUS USA_WIND USA_PRES USA_SSHS USA_R34_NE USA_R34_SE USA_R34_SW USA_R34_NW USA_R50_NE USA_R50_SE USA_R50_SW USA_R50_NW USA_R64_NE USA_R64_SE USA_R64_SW USA_R64_NW USA_POCI USA_ROCI USA_RMW USA_EYE TOKYO_LAT TOKYO_LON TOKYO_GRADE TOKYO_WIND TOKYO_PRES TOKYO_R50_DIR TOKYO_R50_LONG TOKYO_R50_SHORT TOKYO_R30_DIR TOKYO_R30_LONG TOKYO_R30_SHORT TOKYO_LAND CMA_LAT CMA_LON CMA_CAT CMA_WIND CMA_PRES HKO_LAT HKO_LON HKO_CAT HKO_WIND HKO_PRES NEWDELHI_LAT NEWDELHI_LON NEWDELHI_GRADE NEWDELHI_WIND NEWDELHI_PRES NEWDELHI_CI NEWDELHI_DP NEWDELHI_POCI REUNION_LAT REUNION_LON REUNION_TYPE REUNION_WIND REUNION_PRES REUNION_TNUM REUNION_CI REUNION_RMW REUNION_R34_NE REUNION_R34_SE REUNION_R34_SW REUNION_R34_NW REUNION_R50_NE REUNION_R50_SE REUNION_R50_SW REUNION_R50_NW REUNION_R64_NE REUNION_R64_SE REUNION_R64_SW REUNION_R64_NW BOM_LAT BOM_LON BOM_TYPE BOM_WIND BOM_PRES BOM_TNUM BOM_CI BOM_RMW BOM_R34_NE BOM_R34_SE BOM_R34_SW BOM_R34_NW BOM_R50_NE BOM_R50_SE BOM_R50_SW BOM_R50_NW BOM_R64_NE BOM_R64_SE BOM_R64_SW BOM_R64_NW BOM_ROCI BOM_POCI BOM_EYE BOM_POS_METHOD BOM_PRES_METHOD NADI_LAT NADI_LON NADI_CAT NADI_WIND NADI_PRES WELLINGTON_LAT WELLINGTON_LON WELLINGTON_WIND WELLINGTON_PRES DS824_LAT DS824_LON DS824_STAGE DS824_WIND DS824_PRES TD9636_LAT TD9636_LON TD9636_STAGE TD9636_WIND TD9636_PRES TD9635_LAT TD9635_LON TD9635_WIND TD9635_PRES TD9635_ROCI NEUMANN_LAT NEUMANN_LON NEUMANN_CLASS NEUMANN_WIND NEUMANN_PRES MLC_LAT MLC_LON MLC_CLASS MLC_WIND MLC_PRES USA_GUST BOM_GUST BOM_GUST_PER REUNION_GUST REUNION_GUST_PER USA_SEAHGT USA_SEARAD_NE USA_SEARAD_SE USA_SEARAD_SW USA_SEARAD_NW STORM_SPEED STORM_DIR
1994347S09167 1995 115 SP MM NOT_NAMED 1994-12-13 06:00:00 TS -9.00000 167.000 main 549 545 O___________O_ jtwc_sh SH041995 -9.00000 167.000 15 -1 -9.00000 167.000 TC 15 8 138
1994347S09167 1995 115 SP MM NOT_NAMED 1994-12-13 09:00:00 TS -9.31254 167.285 main 569 566 P___________P_ SH041995 -9.31254 167.285 15 -1 -9.31254 167.285 TC 15 8 135
1994347S09167 1995 115 SP MM NOT_NAMED 1994-12-13 12:00:00 TS -9.60000 167.600 main 581 564 O___________O_ jtwc_sh SH041995 -9.60000 167.600 15 -1 -9.60000 167.600 TC 15 9 129
1994347S09167 1995 115 SP MM NOT_NAMED 1994-12-13 15:00:00 TS -9.84994 167.970 main 569 547 P___________P_ SH041995 -9.84994 167.970 15 -1 -9.84994 167.970 TC 15 9 122
1994347S09167 1995 115 SP MM NOT_NAMED 1994-12-13 18:00:00 TS -10.1000 168.400 main 550 537 O___________O_ jtwc_sh SH041995 -10.1000 168.400 15 -1 -10.1000 168.400 TC 15 10 122
1994347S09167 1995 115 SP MM NOT_NAMED 1994-12-13 21:00:00 TS -10.3998 168.855 main 542 532 P___________P_ SH041995 -10.3998 168.855 17 -1 -10.3998 168.855 TC 17 12 121
1994347S09167 1995 115 SP MM NOT_NAMED 1994-12-14 00:00:00 TS -10.7000 169.400 main 541 537 O___________O_ jtwc_sh SH041995 -10.7000 169.400 20 -1 -10.7000 169.400 TC 20 13 115
1994347S09167 1995 115 SP MM NOT_NAMED 1994-12-14 03:00:00 TS -10.9575 170.063 main 553 553 P___________P_ SH041995 -10.9575 170.063 20 -1 -10.9575 170.063 TC 20 15 110
1994347S09167 1995 115 SP MM NOT_NAMED 1994-12-14 06:00:00 TS -11.2000 170.800 main 584 584 O___________O_ jtwc_sh SH041995 -11.2000 170.800 20 -1 -11.2000 170.800 TC 20 15 109
1994347S09167 1995 115 SP MM NOT_NAMED 1994-12-14 09:00:00 TS -11.4422 171.528 main 624 624 P___________P_ SH041995 -11.4422 171.528 20 -1 -11.4422 171.528 TC 20 16 109
1994347S09167 1995 115 SP MM NOT_NAMED 1994-12-14 12:00:00 TS -11.7000 172.300 main 673 673 O___________O_ jtwc_sh SH041995 -11.7000 172.300 20 -1 -11.7000 172.300 TC 20 17 109
1994347S09167 1995 115 SP MM NOT_NAMED 1994-12-14 15:00:00 TS -11.9847 173.120 main 730 698 P___________P_ SH041995 -11.9847 173.120 22 -1 -11.9847 173.120 TC 22 18 110
1994347S09167 1995 115 SP MM NOT_NAMED 1994-12-14 18:00:00 TS -12.3000 174.000 main 690 600 O___________O_ jtwc_sh SH041995 -12.3000 174.000 25 -1 -12.3000 174.000 TC 25 19 110
1994347S09167 1995 115 SP MM NOT_NAMED 1994-12-14 21:00:00 TS -12.6122 174.928 main 600 505 P___________P_ SH041995 -12.6122 174.928 25 -1 -12.6122 174.928 TC 25 20 111
1994347S09167 1995 115 SP MM NOT_NAMED 1994-12-15 00:00:00 TS -13.0000 175.900 main 499 397 O___________O_ jtwc_sh SH041995 -13.0000 175.900 25 -1 -13.0000 175.900 TC 25 21 115
1994347S09167 1995 115 SP MM NOT_NAMED 1994-12-15 03:00:00 TS -13.4974 176.908 main 397 297 P___________P_ SH041995 -13.4974 176.908 27 -1 -13.4974 176.908 TC 27 22 119
1994347S09167 1995 115 SP MM NOT_NAMED 1994-12-15 06:00:00 TS -14.1000 177.900 main 293 183 O___________O_ jtwc_sh SH041995 -14.1000 177.900 30 -1 -14.1000 177.900 TC 30 23 125
1994347S09167 1995 115 SP MM NOT_NAMED 1994-12-15 09:00:00 TS -14.7919 178.808 main 183 81 P___________P_ SH041995 -14.7919 178.808 32 -1 -14.7919 178.808 TC 32 22 129
1994347S09167 1995 115 SP MM NOT_NAMED 1994-12-15 12:00:00 TS -15.5000 179.700 main 79 46 O___________O_ jtwc_sh SH041995 -15.5000 179.700 35 0 -15.5000 179.700 TC 35 22 127
1994347S09167 1995 115 SP MM NOT_NAMED 1994-12-15 15:00:00 TS -16.1148 180.651 main 86 86 P___________P_ SH041995 -16.1148 -179.349 35 0 -16.1148 -179.349 TC 35 22 123
1994347S09167 1995 115 SP MM NOT_NAMED 1994-12-15 18:00:00 TS -16.7000 181.600 main 181 181 O___________O_ jtwc_sh SH041995 -16.7000 -178.400 35 0 -16.7000 -178.400 TC 35 21 124
1994347S09167 1995 115 SP MM NOT_NAMED 1994-12-15 21:00:00 TS -17.2995 182.508 main 282 282 P___________P_ SH041995 -17.2995 -177.492 35 0 -17.2995 -177.492 TC 35 21 125
1994347S09167 1995 115 SP MM NOT_NAMED 1994-12-16 00:00:00 TS -17.9000 183.400 main 391 391 O___________O_ jtwc_sh SH041995 -17.9000 -176.600 35 0 -17.9000 -176.600 TC 35 21 124
1994347S09167 1995 115 SP MM NOT_NAMED 1994-12-16 03:00:00 TS -18.4625 184.331 main 503 503 P___________P_ SH041995 -18.4625 -175.669 35 0 -18.4625 -175.669 TC 35 21 125
1994347S09167 1995 115 SP MM NOT_NAMED 1994-12-16 06:00:00 TS -19.1000 185.200 main 616 616 O___________O_ jtwc_sh SH041995 -19.1000 -174.800 35 0 -19.1000 -174.800 TC 35 21 133
1994347S09167 1995 115 SP MM NOT_NAMED 1994-12-16 09:00:00 TS -19.9045 185.945 main 701 701 P___________P_ SH041995 -19.9045 -174.055 35 0 -19.9045 -174.055 TC 35 22 142
1994347S09167 1995 115 SP MM NOT_NAMED 1994-12-16 12:00:00 TS -20.8000 186.600 main 787 787 O___________O_ jtwc_sh SH041995 -20.8000 -173.400 35 0 -20.8000 -173.400 TC 35 22 146
1994347S09167 1995 115 SP MM NOT_NAMED 1994-12-16 15:00:00 TS -21.6774 187.245 main 884 883 P___________P_ SH041995 -21.6774 -172.755 32 -1 -21.6774 -172.755 TC 32 21 148
1994347S09167 1995 115 SP MM NOT_NAMED 1994-12-16 18:00:00 TS -22.6000 187.800 main 984 984 O___________O_ jtwc_sh SH041995 -22.6000 -172.200 30 -1 -22.6000 -172.200 TC 30 21 154
1994347S09167 1995 115 SP MM NOT_NAMED 1994-12-16 21:00:00 TS -23.5825 188.234 main 1097 1097 P___________P_ SH041995 -23.5825 -171.766 27 -1 -23.5825 -171.766 TC 27 21 160
1994347S09167 1995 115 SP MM NOT_NAMED 1994-12-17 00:00:00 TS -24.6000 188.600 main 1210 O___________O_ jtwc_sh SH041995 -24.6000 -171.400 25 -1 -24.6000 -171.400 TC 25 22 162

デジタル台風データ・検索

IBTrACS Databaseについて

本データベースは、米国NOAAが公開する1842年以降の世界の熱帯低気圧のベストトラックデータアーカイブInternational Best Track Archive for Climate Stewardship (IBTrACS)を、ウェブで閲覧しやすい形式に変換したものです。

最終更新日:2021-10-08